sensor_id;sensor_type;location;lat;lon;timestamp;temperature;humidity
11087;DHT22;5597;47.588;9.642;2023-08-24T00:01:27;22.80;99.90
11087;DHT22;5597;47.588;9.642;2023-08-24T00:03:53;22.70;99.90
11087;DHT22;5597;47.588;9.642;2023-08-24T00:06:18;22.60;99.90
11087;DHT22;5597;47.588;9.642;2023-08-24T00:08:44;22.50;99.90
11087;DHT22;5597;47.588;9.642;2023-08-24T00:11:10;22.40;99.90
11087;DHT22;5597;47.588;9.642;2023-08-24T00:13:41;22.30;99.90
11087;DHT22;5597;47.588;9.642;2023-08-24T00:16:07;22.20;99.90
11087;DHT22;5597;47.588;9.642;2023-08-24T00:18:32;22.10;99.90
11087;DHT22;5597;47.588;9.642;2023-08-24T00:20:58;22.10;99.90
11087;DHT22;5597;47.588;9.642;2023-08-24T00:23:25;22.10;99.90
11087;DHT22;5597;47.588;9.642;2023-08-24T00:25:50;22.00;99.90
11087;DHT22;5597;47.588;9.642;2023-08-24T00:28:16;22.00;99.90
11087;DHT22;5597;47.588;9.642;2023-08-24T00:30:41;22.00;99.90
11087;DHT22;5597;47.588;9.642;2023-08-24T00:33:07;22.00;99.90
11087;DHT22;5597;47.588;9.642;2023-08-24T00:35:32;21.90;99.90
11087;DHT22;5597;47.588;9.642;2023-08-24T00:37:58;21.80;99.90
11087;DHT22;5597;47.588;9.642;2023-08-24T00:40:24;21.80;99.90
11087;DHT22;5597;47.588;9.642;2023-08-24T00:42:50;21.70;99.90
11087;DHT22;5597;47.588;9.642;2023-08-24T00:45:17;21.60;99.90
11087;DHT22;5597;47.588;9.642;2023-08-24T00:47:45;21.50;99.90
11087;DHT22;5597;47.588;9.642;2023-08-24T00:50:12;21.50;99.90
11087;DHT22;5597;47.588;9.642;2023-08-24T00:52:39;21.50;99.90
11087;DHT22;5597;47.588;9.642;2023-08-24T00:55:06;21.40;99.90
11087;DHT22;5597;47.588;9.642;2023-08-24T00:57:32;21.30;99.90
11087;DHT22;5597;47.588;9.642;2023-08-24T00:59:59;21.30;99.90
11087;DHT22;5597;47.588;9.642;2023-08-24T01:02:26;21.20;99.90
11087;DHT22;5597;47.588;9.642;2023-08-24T01:04:51;21.10;99.90
11087;DHT22;5597;47.588;9.642;2023-08-24T01:07:17;21.00;99.90
11087;DHT22;5597;47.588;9.642;2023-08-24T01:09:44;20.90;99.90
11087;DHT22;5597;47.588;9.642;2023-08-24T01:15:33;20.90;99.90
11087;DHT22;5597;47.588;9.642;2023-08-24T01:18:05;20.80;99.90
11087;DHT22;5597;47.588;9.642;2023-08-24T01:20:32;20.70;99.90
11087;DHT22;5597;47.588;9.642;2023-08-24T01:23:17;20.70;99.90
11087;DHT22;5597;47.588;9.642;2023-08-24T01:26:06;20.70;99.90
11087;DHT22;5597;47.588;9.642;2023-08-24T01:28:33;20.50;99.90
11087;DHT22;5597;47.588;9.642;2023-08-24T01:30:59;20.40;99.90
11087;DHT22;5597;47.588;9.642;2023-08-24T01:33:25;20.40;99.90
11087;DHT22;5597;47.588;9.642;2023-08-24T01:35:50;20.30;99.90
11087;DHT22;5597;47.588;9.642;2023-08-24T01:38:16;20.30;99.90
11087;DHT22;5597;47.588;9.642;2023-08-24T01:43:29;20.20;99.90
11087;DHT22;5597;47.588;9.642;2023-08-24T01:45:56;20.20;99.90
11087;DHT22;5597;47.588;9.642;2023-08-24T01:48:24;20.20;99.90
11087;DHT22;5597;47.588;9.642;2023-08-24T01:50:51;20.20;99.90
11087;DHT22;5597;47.588;9.642;2023-08-24T01:53:17;20.20;99.90
11087;DHT22;5597;47.588;9.642;2023-08-24T01:55:44;20.20;99.90
11087;DHT22;5597;47.588;9.642;2023-08-24T01:58:10;20.20;99.90
11087;DHT22;5597;47.588;9.642;2023-08-24T02:00:35;20.20;99.90
11087;DHT22;5597;47.588;9.642;2023-08-24T02:03:01;20.20;99.90
11087;DHT22;5597;47.588;9.642;2023-08-24T02:05:26;20.10;99.90
11087;DHT22;5597;47.588;9.642;2023-08-24T02:07:54;20.10;99.90
11087;DHT22;5597;47.588;9.642;2023-08-24T02:10:20;20.00;99.90
11087;DHT22;5597;47.588;9.642;2023-08-24T02:12:45;20.00;99.90
11087;DHT22;5597;47.588;9.642;2023-08-24T02:15:11;19.90;99.90
11087;DHT22;5597;47.588;9.642;2023-08-24T02:17:36;19.90;99.90
11087;DHT22;5597;47.588;9.642;2023-08-24T02:20:02;19.80;99.90
11087;DHT22;5597;47.588;9.642;2023-08-24T02:22:29;19.80;99.90
11087;DHT22;5597;47.588;9.642;2023-08-24T02:24:56;19.90;99.90
11087;DHT22;5597;47.588;9.642;2023-08-24T02:27:21;19.90;99.90
11087;DHT22;5597;47.588;9.642;2023-08-24T02:29:47;19.90;99.90
11087;DHT22;5597;47.588;9.642;2023-08-24T02:32:12;19.90;99.90
11087;DHT22;5597;47.588;9.642;2023-08-24T02:34:38;19.80;99.90
11087;DHT22;5597;47.588;9.642;2023-08-24T02:37:04;19.80;99.90
11087;DHT22;5597;47.588;9.642;2023-08-24T02:39:29;19.80;99.90
11087;DHT22;5597;47.588;9.642;2023-08-24T02:41:55;19.80;99.90
11087;DHT22;5597;47.588;9.642;2023-08-24T02:44:21;19.70;99.90
11087;DHT22;5597;47.588;9.642;2023-08-24T02:46:48;19.70;99.90
11087;DHT22;5597;47.588;9.642;2023-08-24T02:49:13;19.60;99.90
11087;DHT22;5597;47.588;9.642;2023-08-24T02:51:39;19.60;99.90
11087;DHT22;5597;47.588;9.642;2023-08-24T02:54:05;19.60;99.90
11087;DHT22;5597;47.588;9.642;2023-08-24T02:56:30;19.60;99.90
11087;DHT22;5597;47.588;9.642;2023-08-24T02:58:56;19.60;99.90
11087;DHT22;5597;47.588;9.642;2023-08-24T03:01:22;19.60;99.90
11087;DHT22;5597;47.588;9.642;2023-08-24T03:03:47;19.60;99.90
11087;DHT22;5597;47.588;9.642;2023-08-24T03:06:13;19.60;99.90
11087;DHT22;5597;47.588;9.642;2023-08-24T03:08:39;19.50;99.90
11087;DHT22;5597;47.588;9.642;2023-08-24T03:11:04;19.50;99.90
11087;DHT22;5597;47.588;9.642;2023-08-24T03:13:30;19.50;99.90
11087;DHT22;5597;47.588;9.642;2023-08-24T03:15:56;19.40;99.90
11087;DHT22;5597;47.588;9.642;2023-08-24T03:18:22;19.50;99.90
11087;DHT22;5597;47.588;9.642;2023-08-24T03:20:48;19.50;99.90
11087;DHT22;5597;47.588;9.642;2023-08-24T03:23:15;19.50;99.90
11087;DHT22;5597;47.588;9.642;2023-08-24T03:25:41;19.50;99.90
11087;DHT22;5597;47.588;9.642;2023-08-24T03:28:08;19.50;99.90
11087;DHT22;5597;47.588;9.642;2023-08-24T03:30:39;19.50;99.90
11087;DHT22;5597;47.588;9.642;2023-08-24T03:33:05;19.40;99.90
11087;DHT22;5597;47.588;9.642;2023-08-24T03:35:31;19.40;99.90
11087;DHT22;5597;47.588;9.642;2023-08-24T03:37:57;19.30;99.90
11087;DHT22;5597;47.588;9.642;2023-08-24T03:40:22;19.30;99.90
11087;DHT22;5597;47.588;9.642;2023-08-24T03:42:48;19.30;99.90
11087;DHT22;5597;47.588;9.642;2023-08-24T03:45:13;19.30;99.90
11087;DHT22;5597;47.588;9.642;2023-08-24T03:47:39;19.30;99.90
11087;DHT22;5597;47.588;9.642;2023-08-24T03:50:05;19.30;99.90
11087;DHT22;5597;47.588;9.642;2023-08-24T03:52:31;19.20;99.90
11087;DHT22;5597;47.588;9.642;2023-08-24T03:54:57;19.20;99.90
11087;DHT22;5597;47.588;9.642;2023-08-24T03:57:22;19.20;99.90
11087;DHT22;5597;47.588;9.642;2023-08-24T03:59:48;19.10;99.90
11087;DHT22;5597;47.588;9.642;2023-08-24T04:02:14;19.10;99.90
11087;DHT22;5597;47.588;9.642;2023-08-24T04:04:40;19.10;99.90
11087;DHT22;5597;47.588;9.642;2023-08-24T04:07:05;19.10;99.90
11087;DHT22;5597;47.588;9.642;2023-08-24T04:09:31;19.10;99.90
11087;DHT22;5597;47.588;9.642;2023-08-24T04:11:56;19.10;99.90
11087;DHT22;5597;47.588;9.642;2023-08-24T04:14:22;19.10;99.90
11087;DHT22;5597;47.588;9.642;2023-08-24T04:16:48;19.20;99.90
11087;DHT22;5597;47.588;9.642;2023-08-24T04:19:13;19.20;99.90
11087;DHT22;5597;47.588;9.642;2023-08-24T04:21:39;19.10;99.90
11087;DHT22;5597;47.588;9.642;2023-08-24T04:24:04;19.10;99.90
11087;DHT22;5597;47.588;9.642;2023-08-24T04:26:30;19.10;99.90
11087;DHT22;5597;47.588;9.642;2023-08-24T04:28:56;19.00;99.90
11087;DHT22;5597;47.588;9.642;2023-08-24T04:31:22;19.00;99.90
11087;DHT22;5597;47.588;9.642;2023-08-24T04:33:47;19.00;99.90
11087;DHT22;5597;47.588;9.642;2023-08-24T04:36:13;19.00;99.90
11087;DHT22;5597;47.588;9.642;2023-08-24T04:38:38;19.00;99.90
11087;DHT22;5597;47.588;9.642;2023-08-24T04:41:07;19.00;99.90
11087;DHT22;5597;47.588;9.642;2023-08-24T04:43:33;19.00;99.90
11087;DHT22;5597;47.588;9.642;2023-08-24T04:45:59;19.00;99.90
11087;DHT22;5597;47.588;9.642;2023-08-24T04:48:26;19.00;99.90
11087;DHT22;5597;47.588;9.642;2023-08-24T04:50:52;19.00;99.90
11087;DHT22;5597;47.588;9.642;2023-08-24T04:53:21;19.00;99.90
11087;DHT22;5597;47.588;9.642;2023-08-24T04:55:47;19.00;99.90
11087;DHT22;5597;47.588;9.642;2023-08-24T04:58:13;19.00;99.90
11087;DHT22;5597;47.588;9.642;2023-08-24T05:00:39;18.90;99.90
11087;DHT22;5597;47.588;9.642;2023-08-24T05:03:05;18.90;99.90
11087;DHT22;5597;47.588;9.642;2023-08-24T05:05:32;18.80;99.90
11087;DHT22;5597;47.588;9.642;2023-08-24T05:07:59;18.90;99.90
11087;DHT22;5597;47.588;9.642;2023-08-24T05:10:25;18.80;99.90
11087;DHT22;5597;47.588;9.642;2023-08-24T05:12:50;18.90;99.90
11087;DHT22;5597;47.588;9.642;2023-08-24T05:15:16;18.90;99.90
11087;DHT22;5597;47.588;9.642;2023-08-24T05:17:42;18.90;99.90
11087;DHT22;5597;47.588;9.642;2023-08-24T05:20:08;19.00;99.90
11087;DHT22;5597;47.588;9.642;2023-08-24T05:22:38;19.00;99.90
11087;DHT22;5597;47.588;9.642;2023-08-24T05:25:05;19.00;99.90
11087;DHT22;5597;47.588;9.642;2023-08-24T05:27:33;19.00;99.90
11087;DHT22;5597;47.588;9.642;2023-08-24T05:29:58;19.10;99.90
11087;DHT22;5597;47.588;9.642;2023-08-24T05:32:24;19.10;99.90
11087;DHT22;5597;47.588;9.642;2023-08-24T05:34:50;19.20;99.90
11087;DHT22;5597;47.588;9.642;2023-08-24T05:37:16;19.30;99.90
11087;DHT22;5597;47.588;9.642;2023-08-24T05:39:41;19.40;99.90
11087;DHT22;5597;47.588;9.642;2023-08-24T05:42:08;19.40;99.90
11087;DHT22;5597;47.588;9.642;2023-08-24T05:44:34;19.50;99.90
11087;DHT22;5597;47.588;9.642;2023-08-24T05:47:00;19.60;99.90
11087;DHT22;5597;47.588;9.642;2023-08-24T05:49:25;19.80;99.90
11087;DHT22;5597;47.588;9.642;2023-08-24T05:51:52;19.90;99.90
11087;DHT22;5597;47.588;9.642;2023-08-24T05:54:18;20.00;99.90
11087;DHT22;5597;47.588;9.642;2023-08-24T05:56:44;20.10;99.90
11087;DHT22;5597;47.588;9.642;2023-08-24T05:59:10;20.20;99.90
11087;DHT22;5597;47.588;9.642;2023-08-24T06:01:36;20.30;99.90
11087;DHT22;5597;47.588;9.642;2023-08-24T06:04:04;20.40;99.90
11087;DHT22;5597;47.588;9.642;2023-08-24T06:06:30;20.40;99.90
11087;DHT22;5597;47.588;9.642;2023-08-24T06:08:55;20.50;99.90
11087;DHT22;5597;47.588;9.642;2023-08-24T06:11:21;20.60;99.90
11087;DHT22;5597;47.588;9.642;2023-08-24T06:13:46;20.60;99.90
11087;DHT22;5597;47.588;9.642;2023-08-24T06:16:12;20.70;99.90
11087;DHT22;5597;47.588;9.642;2023-08-24T06:18:38;20.80;99.90
11087;DHT22;5597;47.588;9.642;2023-08-24T06:21:03;20.90;99.90
11087;DHT22;5597;47.588;9.642;2023-08-24T06:23:29;21.10;99.90
11087;DHT22;5597;47.588;9.642;2023-08-24T06:25:54;21.30;99.90
11087;DHT22;5597;47.588;9.642;2023-08-24T06:28:20;21.50;99.90
11087;DHT22;5597;47.588;9.642;2023-08-24T06:30:45;21.70;99.90
11087;DHT22;5597;47.588;9.642;2023-08-24T06:33:12;21.90;99.90
11087;DHT22;5597;47.588;9.642;2023-08-24T06:35:38;22.10;99.90
11087;DHT22;5597;47.588;9.642;2023-08-24T06:38:04;22.30;99.90
11087;DHT22;5597;47.588;9.642;2023-08-24T06:40:30;22.50;99.90
11087;DHT22;5597;47.588;9.642;2023-08-24T06:42:56;22.60;99.90
11087;DHT22;5597;47.588;9.642;2023-08-24T06:45:22;22.80;99.90
11087;DHT22;5597;47.588;9.642;2023-08-24T06:47:48;23.00;99.90
11087;DHT22;5597;47.588;9.642;2023-08-24T06:50:16;23.20;99.90
11087;DHT22;5597;47.588;9.642;2023-08-24T06:52:42;23.40;99.90
11087;DHT22;5597;47.588;9.642;2023-08-24T06:55:08;23.60;99.90
11087;DHT22;5597;47.588;9.642;2023-08-24T06:57:38;23.80;99.90
11087;DHT22;5597;47.588;9.642;2023-08-24T07:00:04;24.00;99.90
11087;DHT22;5597;47.588;9.642;2023-08-24T07:02:33;24.20;99.90
11087;DHT22;5597;47.588;9.642;2023-08-24T07:04:58;24.50;99.90
11087;DHT22;5597;47.588;9.642;2023-08-24T07:07:24;24.60;99.90
11087;DHT22;5597;47.588;9.642;2023-08-24T07:09:50;24.80;99.90
11087;DHT22;5597;47.588;9.642;2023-08-24T07:12:16;25.00;99.90
11087;DHT22;5597;47.588;9.642;2023-08-24T07:14:41;25.10;99.90
11087;DHT22;5597;47.588;9.642;2023-08-24T07:17:07;25.30;99.90
11087;DHT22;5597;47.588;9.642;2023-08-24T07:19:33;25.40;99.90
11087;DHT22;5597;47.588;9.642;2023-08-24T07:21:59;25.50;99.90
11087;DHT22;5597;47.588;9.642;2023-08-24T07:24:24;25.70;99.90
11087;DHT22;5597;47.588;9.642;2023-08-24T07:26:52;25.80;99.90
11087;DHT22;5597;47.588;9.642;2023-08-24T07:29:19;26.00;99.90
11087;DHT22;5597;47.588;9.642;2023-08-24T07:31:45;26.10;99.90
11087;DHT22;5597;47.588;9.642;2023-08-24T07:34:10;26.20;99.90
11087;DHT22;5597;47.588;9.642;2023-08-24T07:36:36;26.40;99.90
11087;DHT22;5597;47.588;9.642;2023-08-24T07:39:03;26.50;99.90
11087;DHT22;5597;47.588;9.642;2023-08-24T07:41:28;26.60;99.90
11087;DHT22;5597;47.588;9.642;2023-08-24T07:43:54;26.70;99.90
11087;DHT22;5597;47.588;9.642;2023-08-24T07:46:19;26.80;99.90
11087;DHT22;5597;47.588;9.642;2023-08-24T07:48:45;27.00;99.90
11087;DHT22;5597;47.588;9.642;2023-08-24T07:51:11;27.10;99.90
11087;DHT22;5597;47.588;9.642;2023-08-24T07:53:37;27.20;99.90
11087;DHT22;5597;47.588;9.642;2023-08-24T07:56:02;27.30;99.90
11087;DHT22;5597;47.588;9.642;2023-08-24T07:58:28;27.40;99.90
11087;DHT22;5597;47.588;9.642;2023-08-24T08:00:53;27.60;99.90
11087;DHT22;5597;47.588;9.642;2023-08-24T08:03:19;27.70;99.90
11087;DHT22;5597;47.588;9.642;2023-08-24T08:05:46;27.80;99.90
11087;DHT22;5597;47.588;9.642;2023-08-24T08:08:13;27.90;99.90
11087;DHT22;5597;47.588;9.642;2023-08-24T08:10:39;28.00;99.90
11087;DHT22;5597;47.588;9.642;2023-08-24T08:13:06;28.10;99.90
11087;DHT22;5597;47.588;9.642;2023-08-24T08:15:31;28.20;99.90
11087;DHT22;5597;47.588;9.642;2023-08-24T08:17:57;28.30;99.90
11087;DHT22;5597;47.588;9.642;2023-08-24T08:20:23;28.50;99.90
11087;DHT22;5597;47.588;9.642;2023-08-24T08:22:48;28.50;99.90
11087;DHT22;5597;47.588;9.642;2023-08-24T08:25:14;28.60;99.90
11087;DHT22;5597;47.588;9.642;2023-08-24T08:27:43;28.60;99.90
11087;DHT22;5597;47.588;9.642;2023-08-24T08:30:09;28.60;99.90
11087;DHT22;5597;47.588;9.642;2023-08-24T08:32:35;28.60;99.90
11087;DHT22;5597;47.588;9.642;2023-08-24T08:35:01;28.70;99.90
11087;DHT22;5597;47.588;9.642;2023-08-24T08:37:27;28.80;99.90
11087;DHT22;5597;47.588;9.642;2023-08-24T08:39:53;29.00;99.90
11087;DHT22;5597;47.588;9.642;2023-08-24T08:42:18;29.00;99.90
11087;DHT22;5597;47.588;9.642;2023-08-24T08:44:45;29.00;99.90
11087;DHT22;5597;47.588;9.642;2023-08-24T08:47:11;28.90;99.90
11087;DHT22;5597;47.588;9.642;2023-08-24T08:49:39;28.90;99.90
11087;DHT22;5597;47.588;9.642;2023-08-24T08:52:05;28.90;99.90
11087;DHT22;5597;47.588;9.642;2023-08-24T08:54:31;29.00;99.90
11087;DHT22;5597;47.588;9.642;2023-08-24T08:57:01;29.20;99.90
11087;DHT22;5597;47.588;9.642;2023-08-24T08:59:28;29.40;99.90
11087;DHT22;5597;47.588;9.642;2023-08-24T09:01:57;29.50;99.90
11087;DHT22;5597;47.588;9.642;2023-08-24T09:04:31;29.50;99.90
11087;DHT22;5597;47.588;9.642;2023-08-24T09:06:57;29.50;99.90
11087;DHT22;5597;47.588;9.642;2023-08-24T09:09:24;29.60;99.90
11087;DHT22;5597;47.588;9.642;2023-08-24T09:11:50;29.60;99.90
11087;DHT22;5597;47.588;9.642;2023-08-24T09:14:16;29.60;99.90
11087;DHT22;5597;47.588;9.642;2023-08-24T09:16:42;29.60;99.90
11087;DHT22;5597;47.588;9.642;2023-08-24T09:19:11;29.70;99.90
11087;DHT22;5597;47.588;9.642;2023-08-24T09:21:38;29.80;99.90
11087;DHT22;5597;47.588;9.642;2023-08-24T09:24:04;30.00;99.90
11087;DHT22;5597;47.588;9.642;2023-08-24T09:26:33;30.10;99.90
11087;DHT22;5597;47.588;9.642;2023-08-24T09:29:05;30.00;99.90
11087;DHT22;5597;47.588;9.642;2023-08-24T09:31:36;30.00;99.90
11087;DHT22;5597;47.588;9.642;2023-08-24T09:34:05;30.20;99.90
11087;DHT22;5597;47.588;9.642;2023-08-24T09:36:32;30.40;99.90
11087;DHT22;5597;47.588;9.642;2023-08-24T09:38:59;30.50;99.90
11087;DHT22;5597;47.588;9.642;2023-08-24T09:41:48;30.70;99.90
11087;DHT22;5597;47.588;9.642;2023-08-24T09:44:13;30.80;99.90
11087;DHT22;5597;47.588;9.642;2023-08-24T09:46:39;30.80;99.90
11087;DHT22;5597;47.588;9.642;2023-08-24T09:49:07;30.80;99.90
11087;DHT22;5597;47.588;9.642;2023-08-24T09:51:34;30.80;99.90
11087;DHT22;5597;47.588;9.642;2023-08-24T09:54:02;30.80;99.90
11087;DHT22;5597;47.588;9.642;2023-08-24T09:56:31;30.90;99.90
11087;DHT22;5597;47.588;9.642;2023-08-24T09:59:00;31.20;99.90
11087;DHT22;5597;47.588;9.642;2023-08-24T10:01:29;31.40;99.90
11087;DHT22;5597;47.588;9.642;2023-08-24T10:03:57;31.50;99.90
11087;DHT22;5597;47.588;9.642;2023-08-24T10:06:27;31.60;99.90
11087;DHT22;5597;47.588;9.642;2023-08-24T10:08:57;31.70;99.90
11087;DHT22;5597;47.588;9.642;2023-08-24T10:11:28;31.90;99.90
11087;DHT22;5597;47.588;9.642;2023-08-24T10:14:12;31.90;99.90
11087;DHT22;5597;47.588;9.642;2023-08-24T10:16:42;32.00;99.90
11087;DHT22;5597;47.588;9.642;2023-08-24T10:19:09;32.20;99.90
11087;DHT22;5597;47.588;9.642;2023-08-24T10:21:37;32.40;99.90
11087;DHT22;5597;47.588;9.642;2023-08-24T10:24:03;32.40;99.90
11087;DHT22;5597;47.588;9.642;2023-08-24T10:26:29;32.40;99.90
11087;DHT22;5597;47.588;9.642;2023-08-24T10:28:56;32.60;99.90
11087;DHT22;5597;47.588;9.642;2023-08-24T10:31:22;32.80;99.90
11087;DHT22;5597;47.588;9.642;2023-08-24T10:33:49;33.00;99.90
11087;DHT22;5597;47.588;9.642;2023-08-24T10:36:15;33.10;99.90
11087;DHT22;5597;47.588;9.642;2023-08-24T10:38:43;33.10;99.90
11087;DHT22;5597;47.588;9.642;2023-08-24T10:41:10;33.20;99.90
11087;DHT22;5597;47.588;9.642;2023-08-24T10:43:40;33.30;99.90
11087;DHT22;5597;47.588;9.642;2023-08-24T10:46:13;33.20;99.90
11087;DHT22;5597;47.588;9.642;2023-08-24T10:53:56;32.20;99.90
11087;DHT22;5597;47.588;9.642;2023-08-24T10:56:33;32.10;99.90
11087;DHT22;5597;47.588;9.642;2023-08-24T10:59:16;32.20;99.90
11087;DHT22;5597;47.588;9.642;2023-08-24T11:01:43;32.40;99.90
11087;DHT22;5597;47.588;9.642;2023-08-24T11:04:19;32.50;99.90
11087;DHT22;5597;47.588;9.642;2023-08-24T11:06:55;32.80;99.90
11087;DHT22;5597;47.588;9.642;2023-08-24T11:09:23;33.10;99.90
11087;DHT22;5597;47.588;9.642;2023-08-24T11:11:59;33.50;99.90
11087;DHT22;5597;47.588;9.642;2023-08-24T11:14:26;33.70;99.90
11087;DHT22;5597;47.588;9.642;2023-08-24T11:16:52;33.80;99.90
11087;DHT22;5597;47.588;9.642;2023-08-24T11:19:19;34.00;99.90
11087;DHT22;5597;47.588;9.642;2023-08-24T11:21:46;34.20;99.90
11087;DHT22;5597;47.588;9.642;2023-08-24T11:24:16;34.40;99.90
11087;DHT22;5597;47.588;9.642;2023-08-24T11:26:43;34.50;99.90
11087;DHT22;5597;47.588;9.642;2023-08-24T11:29:10;34.70;99.90
11087;DHT22;5597;47.588;9.642;2023-08-24T11:31:36;34.90;99.90
11087;DHT22;5597;47.588;9.642;2023-08-24T11:34:02;35.10;99.90
11087;DHT22;5597;47.588;9.642;2023-08-24T11:36:30;35.40;99.90
11087;DHT22;5597;47.588;9.642;2023-08-24T11:38:59;35.40;99.90
11087;DHT22;5597;47.588;9.642;2023-08-24T11:41:26;35.40;99.90
11087;DHT22;5597;47.588;9.642;2023-08-24T11:43:59;35.60;99.90
11087;DHT22;5597;47.588;9.642;2023-08-24T11:46:25;35.70;99.90
11087;DHT22;5597;47.588;9.642;2023-08-24T11:48:53;35.60;99.90
11087;DHT22;5597;47.588;9.642;2023-08-24T11:51:18;35.60;99.90
11087;DHT22;5597;47.588;9.642;2023-08-24T11:53:45;35.60;99.90
11087;DHT22;5597;47.588;9.642;2023-08-24T11:56:14;35.80;99.90
11087;DHT22;5597;47.588;9.642;2023-08-24T11:58:43;36.00;99.90
11087;DHT22;5597;47.588;9.642;2023-08-24T12:01:10;36.30;99.90
11087;DHT22;5597;47.588;9.642;2023-08-24T12:03:40;36.50;99.40
11087;DHT22;5597;47.588;9.642;2023-08-24T12:06:15;36.50;98.80
11087;DHT22;5597;47.588;9.642;2023-08-24T12:08:43;36.50;98.80
11087;DHT22;5597;47.588;9.642;2023-08-24T12:11:12;36.70;97.30
11087;DHT22;5597;47.588;9.642;2023-08-24T12:13:37;36.60;98.20
11087;DHT22;5597;47.588;9.642;2023-08-24T12:16:04;36.60;97.20
11087;DHT22;5597;47.588;9.642;2023-08-24T12:18:30;36.50;96.90
11087;DHT22;5597;47.588;9.642;2023-08-24T12:20:57;36.50;97.60
11087;DHT22;5597;47.588;9.642;2023-08-24T12:23:27;36.80;97.90
11087;DHT22;5597;47.588;9.642;2023-08-24T12:25:54;37.00;97.40
11087;DHT22;5597;47.588;9.642;2023-08-24T12:28:20;37.20;97.20
11087;DHT22;5597;47.588;9.642;2023-08-24T12:30:53;37.50;96.80
11087;DHT22;5597;47.588;9.642;2023-08-24T12:33:25;37.70;95.80
11087;DHT22;5597;47.588;9.642;2023-08-24T12:35:51;38.00;95.90
11087;DHT22;5597;47.588;9.642;2023-08-24T12:38:17;38.30;93.80
11087;DHT22;5597;47.588;9.642;2023-08-24T12:40:43;38.20;93.90
11087;DHT22;5597;47.588;9.642;2023-08-24T12:43:08;38.20;95.30
11087;DHT22;5597;47.588;9.642;2023-08-24T12:45:34;38.30;92.60
11087;DHT22;5597;47.588;9.642;2023-08-24T12:48:00;38.40;93.20
11087;DHT22;5597;47.588;9.642;2023-08-24T12:50:25;38.40;92.20
11087;DHT22;5597;47.588;9.642;2023-08-24T12:52:51;38.40;93.60
11087;DHT22;5597;47.588;9.642;2023-08-24T12:55:20;38.50;92.60
11087;DHT22;5597;47.588;9.642;2023-08-24T12:57:46;38.30;91.00
11087;DHT22;5597;47.588;9.642;2023-08-24T13:00:13;38.20;90.40
11087;DHT22;5597;47.588;9.642;2023-08-24T13:02:39;37.90;90.10
11087;DHT22;5597;47.588;9.642;2023-08-24T13:05:05;37.70;88.50
11087;DHT22;5597;47.588;9.642;2023-08-24T13:07:31;37.50;89.10
11087;DHT22;5597;47.588;9.642;2023-08-24T13:09:56;37.40;89.30
11087;DHT22;5597;47.588;9.642;2023-08-24T13:12:23;37.50;90.90
11087;DHT22;5597;47.588;9.642;2023-08-24T13:14:49;37.70;91.70
11087;DHT22;5597;47.588;9.642;2023-08-24T13:17:15;37.80;91.30
11087;DHT22;5597;47.588;9.642;2023-08-24T13:19:40;37.90;91.90
11087;DHT22;5597;47.588;9.642;2023-08-24T13:22:06;38.00;89.70
11087;DHT22;5597;47.588;9.642;2023-08-24T13:24:33;38.00;89.10
11087;DHT22;5597;47.588;9.642;2023-08-24T13:26:59;38.00;90.90
11087;DHT22;5597;47.588;9.642;2023-08-24T13:29:25;38.20;91.90
11087;DHT22;5597;47.588;9.642;2023-08-24T13:31:51;38.40;92.00
11087;DHT22;5597;47.588;9.642;2023-08-24T13:34:17;38.60;91.70
11087;DHT22;5597;47.588;9.642;2023-08-24T13:36:42;38.70;91.60
11087;DHT22;5597;47.588;9.642;2023-08-24T13:39:08;38.90;91.20
11087;DHT22;5597;47.588;9.642;2023-08-24T13:41:35;39.20;90.20
11087;DHT22;5597;47.588;9.642;2023-08-24T13:44:01;39.40;87.30
11087;DHT22;5597;47.588;9.642;2023-08-24T13:46:26;39.50;86.40
11087;DHT22;5597;47.588;9.642;2023-08-24T13:48:52;39.60;86.40
11087;DHT22;5597;47.588;9.642;2023-08-24T13:51:18;39.70;85.40
11087;DHT22;5597;47.588;9.642;2023-08-24T13:53:43;39.60;84.40
11087;DHT22;5597;47.588;9.642;2023-08-24T13:56:09;39.40;82.00
11087;DHT22;5597;47.588;9.642;2023-08-24T13:58:34;39.20;82.80
11087;DHT22;5597;47.588;9.642;2023-08-24T14:01:01;39.30;83.30
11087;DHT22;5597;47.588;9.642;2023-08-24T14:03:28;39.30;82.80
11087;DHT22;5597;47.588;9.642;2023-08-24T14:05:57;39.40;83.40
11087;DHT22;5597;47.588;9.642;2023-08-24T14:08:23;39.60;83.80
11087;DHT22;5597;47.588;9.642;2023-08-24T14:10:48;39.80;84.40
11087;DHT22;5597;47.588;9.642;2023-08-24T14:13:15;40.10;84.50
11087;DHT22;5597;47.588;9.642;2023-08-24T14:15:40;40.40;81.40
11087;DHT22;5597;47.588;9.642;2023-08-24T14:18:06;40.50;82.00
11087;DHT22;5597;47.588;9.642;2023-08-24T14:20:33;40.60;83.70
11087;DHT22;5597;47.588;9.642;2023-08-24T14:22:58;40.70;83.40
11087;DHT22;5597;47.588;9.642;2023-08-24T14:25:24;40.90;83.20
11087;DHT22;5597;47.588;9.642;2023-08-24T14:27:49;41.10;82.70
11087;DHT22;5597;47.588;9.642;2023-08-24T14:30:15;41.20;82.10
11087;DHT22;5597;47.588;9.642;2023-08-24T14:32:40;41.30;80.90
11087;DHT22;5597;47.588;9.642;2023-08-24T14:35:07;41.20;81.00
11087;DHT22;5597;47.588;9.642;2023-08-24T14:37:33;41.20;77.40
11087;DHT22;5597;47.588;9.642;2023-08-24T14:39:59;41.10;77.90
11087;DHT22;5597;47.588;9.642;2023-08-24T14:42:24;40.90;79.20
11087;DHT22;5597;47.588;9.642;2023-08-24T14:44:50;41.00;79.60
11087;DHT22;5597;47.588;9.642;2023-08-24T14:47:15;41.00;79.20
11087;DHT22;5597;47.588;9.642;2023-08-24T14:49:41;41.10;78.70
11087;DHT22;5597;47.588;9.642;2023-08-24T14:52:06;41.10;78.70
11087;DHT22;5597;47.588;9.642;2023-08-24T14:54:32;41.10;80.00
11087;DHT22;5597;47.588;9.642;2023-08-24T14:56:58;41.20;79.60
11087;DHT22;5597;47.588;9.642;2023-08-24T14:59:25;41.40;79.50
11087;DHT22;5597;47.588;9.642;2023-08-24T15:01:50;41.50;79.50
11087;DHT22;5597;47.588;9.642;2023-08-24T15:04:17;41.50;79.20
11087;DHT22;5597;47.588;9.642;2023-08-24T15:06:42;41.60;79.20
11087;DHT22;5597;47.588;9.642;2023-08-24T15:09:08;41.80;78.40
11087;DHT22;5597;47.588;9.642;2023-08-24T15:11:33;41.80;77.70
11087;DHT22;5597;47.588;9.642;2023-08-24T15:13:59;41.80;75.60
11087;DHT22;5597;47.588;9.642;2023-08-24T15:16:24;41.70;75.30
11087;DHT22;5597;47.588;9.642;2023-08-24T15:18:50;41.70;75.40
11087;DHT22;5597;47.588;9.642;2023-08-24T15:21:16;41.70;75.30
11087;DHT22;5597;47.588;9.642;2023-08-24T15:23:41;41.70;74.00
11087;DHT22;5597;47.588;9.642;2023-08-24T15:26:07;41.70;72.50
11087;DHT22;5597;47.588;9.642;2023-08-24T15:29:06;41.60;71.30
11087;DHT22;5597;47.588;9.642;2023-08-24T15:31:23;41.40;69.90
11087;DHT22;5597;47.588;9.642;2023-08-24T15:33:49;41.00;70.00
11087;DHT22;5597;47.588;9.642;2023-08-24T15:36:15;40.60;70.80
11087;DHT22;5597;47.588;9.642;2023-08-24T15:38:40;40.40;73.50
11087;DHT22;5597;47.588;9.642;2023-08-24T15:41:06;40.30;75.30
11087;DHT22;5597;47.588;9.642;2023-08-24T15:43:31;40.50;76.20
11087;DHT22;5597;47.588;9.642;2023-08-24T15:45:57;40.40;76.80
11087;DHT22;5597;47.588;9.642;2023-08-24T15:48:23;40.30;77.80
11087;DHT22;5597;47.588;9.642;2023-08-24T15:50:48;40.00;75.60
11087;DHT22;5597;47.588;9.642;2023-08-24T15:53:14;39.70;73.80